Time;durP1;ratioP1;P1;durP2;ratioP2;P2;SDS_P1;SDS_P2;PMS_P1;PMS_P2;Temp;Humidity;BMP_temperature;BMP_pressure;BME280_temperature;BME280_humidity;BME280_pressure;Samples;Min_cycle;Max_cycle;Signal;HPM_P1;HPM_P2
2023/09/08 00:06:01;;;;;;;9.13;5.47;;;19.20;90.80;;;;;;20895647;28;20206;-74
2023/09/08 00:16:03;;;;;;;12.17;5.77;;;19.10;91.30;;;;;;20913057;28;20318;-73
2023/09/08 00:26:05;;;;;;;7.53;5.40;;;19.10;91.80;;;;;;20912386;28;20721;-72
2023/09/08 00:36:07;;;;;;;6.47;5.30;;;19.00;92.40;;;;;;20922355;28;20242;-71
2023/09/08 00:46:09;;;;;;;9.00;5.00;;;18.80;92.80;;;;;;20929061;28;20203;-70
2023/09/08 00:56:12;;;;;;;5.77;4.80;;;18.80;93.20;;;;;;20927830;28;20607;-71
2023/09/08 01:06:14;;;;;;;8.13;5.07;;;18.60;93.60;;;;;;20927325;28;20204;-70
2023/09/08 01:16:16;;;;;;;10.13;5.47;;;18.40;94.10;;;;;;20926562;28;20241;-71
2023/09/08 01:26:21;;;;;;;9.30;5.43;;;18.30;94.80;;;;;;20908027;28;20212;-71
2023/09/08 01:36:22;;;;;;;7.77;5.30;;;18.20;95.30;;;;;;20924841;28;20776;-71
2023/09/08 01:46:24;;;;;;;9.17;5.37;;;18.10;95.70;;;;;;20924488;28;20208;-71
2023/09/08 01:56:26;;;;;;;9.70;5.40;;;18.00;96.00;;;;;;20923012;28;20286;-71
2023/09/08 02:06:28;;;;;;;10.30;5.40;;;17.90;96.30;;;;;;20922548;28;20582;-71
2023/09/08 02:16:29;;;;;;;8.47;5.07;;;17.80;96.60;;;;;;20921965;28;20234;-72
2023/09/08 02:26:33;;;;;;;12.70;5.53;;;17.60;96.90;;;;;;20920926;28;20208;-73
2023/09/08 02:36:35;;;;;;;9.63;5.63;;;17.60;97.20;;;;;;20920073;28;20232;-73
2023/09/08 02:46:36;;;;;;;10.70;5.37;;;17.50;97.50;;;;;;20919558;28;20207;-72
2023/09/08 02:56:38;;;;;;;6.90;5.57;;;17.30;97.70;;;;;;20918334;28;20238;-73
2023/09/08 03:06:40;;;;;;;10.57;5.80;;;17.20;98.10;;;;;;20917733;28;20212;-71
2023/09/08 03:16:42;;;;;;;8.83;5.90;;;17.10;98.40;;;;;;20917292;28;20719;-72
2023/09/08 03:26:44;;;;;;;8.13;5.47;;;17.00;98.60;;;;;;20916309;28;20286;-71
2023/09/08 03:36:45;;;;;;;7.87;5.33;;;16.90;98.80;;;;;;20916034;28;20236;-72
2023/09/08 03:46:47;;;;;;;8.17;5.63;;;16.80;99.10;;;;;;20915112;28;20217;-71
2023/09/08 03:56:49;;;;;;;9.10;5.50;;;16.70;99.20;;;;;;20913922;28;20242;-71
2023/09/08 04:06:51;;;;;;;8.50;5.40;;;16.70;99.40;;;;;;20912924;28;20210;-71
2023/09/08 04:16:55;;;;;;;10.47;5.70;;;16.70;99.40;;;;;;20914426;28;20239;-72
2023/09/08 04:26:57;;;;;;;11.43;6.00;;;16.60;99.60;;;;;;20912418;28;20210;-71
2023/09/08 04:36:58;;;;;;;13.27;6.27;;;16.60;99.50;;;;;;20912010;28;20630;-72
2023/09/08 04:47:00;;;;;;;12.60;6.50;;;16.50;99.80;;;;;;20912159;28;20215;-72
2023/09/08 04:57:02;;;;;;;16.83;7.63;;;16.50;99.80;;;;;;20911081;28;20605;-72
2023/09/08 05:07:23;;;;;;;14.17;7.40;;;16.40;99.90;;;;;;20910525;28;20208;-71
2023/09/08 05:17:26;;;;;;;11.07;7.00;;;16.40;99.90;;;;;;20911914;28;20230;-72
2023/09/08 05:27:27;;;;;;;12.57;6.87;;;16.40;99.90;;;;;;20925425;28;20301;-72
2023/09/08 05:37:29;;;;;;;15.83;6.93;;;16.40;99.90;;;;;;20924618;28;20236;-71
2023/09/08 05:47:31;;;;;;;13.63;7.00;;;16.40;99.90;;;;;;20924451;28;20294;-71
2023/09/08 05:57:34;;;;;;;13.30;7.30;;;16.60;99.90;;;;;;20922972;28;20249;-72
2023/09/08 06:07:36;;;;;;;18.67;8.20;;;16.70;99.90;;;;;;20922647;28;20242;-72
2023/09/08 06:17:39;;;;;;;19.83;7.33;;;16.90;99.90;;;;;;20851162;28;20315;-71
2023/09/08 06:27:41;;;;;;;17.43;7.17;;;17.00;99.90;;;;;;20791663;28;20200;-72
2023/09/08 06:37:43;;;;;;;22.07;10.77;;;17.40;99.90;;;;;;20807226;28;20229;-71
2023/09/08 06:47:45;;;;;;;17.70;9.23;;;17.60;99.90;;;;;;20754474;28;20312;-70
2023/09/08 06:57:46;;;;;;;11.50;7.23;;;17.80;99.90;;;;;;20787764;28;20281;-71
2023/09/08 07:07:48;;;;;;;17.40;8.30;;;18.20;99.90;;;;;;20835036;28;20211;-69
2023/09/08 07:17:50;;;;;;;12.27;7.37;;;18.30;99.90;;;;;;20834502;28;20323;-68
2023/09/08 07:27:53;;;;;;;17.77;8.30;;;18.60;99.90;;;;;;20815282;28;20210;-72
2023/09/08 07:37:55;;;;;;;14.33;7.97;;;18.80;99.50;;;;;;20750752;28;20239;-70
2023/09/08 07:47:57;;;;;;;19.80;9.00;;;19.10;99.10;;;;;;20749601;28;20264;-69
2023/09/08 07:58:00;;;;;;;15.83;7.93;;;19.40;98.80;;;;;;20668565;28;20241;-72
2023/09/08 08:08:02;;;;;;;11.57;7.17;;;19.70;98.40;;;;;;20681627;28;20201;-75
2023/09/08 08:18:05;;;;;;;10.60;6.80;;;20.10;97.90;;;;;;20748537;28;20241;-74
2023/09/08 08:28:07;;;;;;;11.90;6.97;;;20.40;97.30;;;;;;20748014;28;20205;-68
2023/09/08 08:38:09;;;;;;;15.10;5.97;;;20.80;96.50;;;;;;20706812;28;20237;-72
2023/09/08 08:48:13;;;;;;;14.13;5.87;;;21.10;96.10;;;;;;20696867;28;20689;-72
2023/09/08 08:58:15;;;;;;;11.13;5.73;;;21.50;95.10;;;;;;20799454;28;20340;-71
2023/09/08 09:08:18;;;;;;;7.97;5.53;;;21.80;94.30;;;;;;20797491;28;20660;-71
2023/09/08 09:18:20;;;;;;;6.93;4.87;;;22.10;93.40;;;;;;20795915;28;20237;-71
2023/09/08 09:28:22;;;;;;;8.07;5.33;;;22.40;92.20;;;;;;20795909;28;20256;-72
2023/09/08 09:38:26;;;;;;;7.43;5.63;;;22.70;91.10;;;;;;20795768;28;20260;-70
2023/09/08 09:48:28;;;;;;;9.83;5.13;;;23.00;89.50;;;;;;20793080;28;20229;-70
2023/09/08 09:58:30;;;;;;;6.87;4.63;;;23.20;87.00;;;;;;20797561;28;20300;-71
2023/09/08 10:08:37;;;;;;;9.07;4.90;;;23.40;84.30;;;;;;20802160;28;20644;-69
